createdAt,value
2022-09-20T00:00:22.096Z,13.29
2022-09-20T00:02:53.936Z,13.24
2022-09-20T00:05:26.057Z,13.15
2022-09-20T00:07:58.118Z,13.10
2022-09-20T00:10:31.677Z,13.05
2022-09-20T00:13:04.106Z,13.03
2022-09-20T00:15:43.737Z,13.02
2022-09-20T00:18:15.696Z,13.03
2022-09-20T00:20:48.385Z,13.04
2022-09-20T00:23:20.299Z,13.03
2022-09-20T00:25:59.828Z,13.03
2022-09-20T00:28:32.380Z,13.01
2022-09-20T00:31:04.949Z,12.99
2022-09-20T00:33:55.358Z,12.98
2022-09-20T00:36:27.704Z,12.97
2022-09-20T00:39:01.947Z,12.94
2022-09-20T00:41:33.919Z,12.93
2022-09-20T00:44:43.405Z,12.91
2022-09-20T00:47:15.139Z,12.89
2022-09-20T00:49:48.447Z,12.88
2022-09-20T00:52:20.606Z,12.89
2022-09-20T00:54:52.876Z,12.86
2022-09-20T00:57:24.747Z,12.88
2022-09-20T00:59:56.872Z,12.89
2022-09-20T01:02:30.698Z,12.90
2022-09-20T01:05:02.914Z,12.91
2022-09-20T01:07:35.561Z,12.90
2022-09-20T01:10:07.918Z,12.92
2022-09-20T01:12:42.774Z,12.92
2022-09-20T01:15:15.600Z,12.90
2022-09-20T01:17:52.425Z,12.90
2022-09-20T01:20:30.002Z,12.88
2022-09-20T01:23:07.895Z,12.85
2022-09-20T01:26:07.641Z,12.84
2022-09-20T01:28:42.142Z,12.83
2022-09-20T01:31:35.075Z,12.83
2022-09-20T01:34:11.537Z,12.82
2022-09-20T01:36:57.932Z,12.82
2022-09-20T01:40:10.667Z,12.81
2022-09-20T01:42:51.626Z,12.79
2022-09-20T01:45:30.092Z,12.79
2022-09-20T01:48:10.143Z,12.78
2022-09-20T01:51:25.205Z,12.76
2022-09-20T01:54:28.575Z,12.75
2022-09-20T01:57:39.030Z,12.75
2022-09-20T02:00:23.242Z,12.73
2022-09-20T02:03:22.048Z,12.71
2022-09-20T02:05:59.396Z,12.70
2022-09-20T02:08:58.143Z,12.69
2022-09-20T02:11:59.267Z,12.68
2022-09-20T02:14:58.670Z,12.70
2022-09-20T02:18:01.074Z,12.70
2022-09-20T02:20:39.773Z,12.68
2022-09-20T02:23:48.997Z,12.68
2022-09-20T02:26:28.225Z,12.66
2022-09-20T02:29:19.567Z,12.64
2022-09-20T02:32:10.872Z,12.63
2022-09-20T02:34:55.724Z,12.63
2022-09-20T02:37:36.247Z,12.61
2022-09-20T02:40:24.007Z,12.61
2022-09-20T02:42:58.886Z,12.60
2022-09-20T02:45:44.460Z,12.60
2022-09-20T02:48:21.035Z,12.60
2022-09-20T02:51:17.112Z,12.60
2022-09-20T02:54:02.054Z,12.58
2022-09-20T02:57:02.544Z,12.56
2022-09-20T02:59:47.041Z,12.55
2022-09-20T03:02:46.551Z,12.49
2022-09-20T03:05:29.925Z,12.47
2022-09-20T03:08:08.421Z,12.45
2022-09-20T03:10:50.514Z,12.42
2022-09-20T03:13:43.614Z,12.42
2022-09-20T03:16:39.886Z,12.39
2022-09-20T03:19:43.556Z,12.35
2022-09-20T03:22:20.385Z,12.34
2022-09-20T03:25:08.217Z,12.32
2022-09-20T03:28:29.960Z,12.28
2022-09-20T03:31:11.635Z,12.23
2022-09-20T03:34:02.094Z,12.21
2022-09-20T03:36:58.201Z,12.16
2022-09-20T03:40:00.921Z,12.09
2022-09-20T03:42:33.070Z,12.04
2022-09-20T03:45:17.281Z,12.01
2022-09-20T03:48:22.016Z,11.98
2022-09-20T03:51:32.913Z,11.96
2022-09-20T03:54:11.728Z,11.94
2022-09-20T03:57:01.565Z,11.93
2022-09-20T04:00:10.171Z,11.91
2022-09-20T04:03:14.597Z,11.87
2022-09-20T04:06:27.434Z,11.85
2022-09-20T04:09:19.540Z,11.83
2022-09-20T04:12:20.386Z,11.82
2022-09-20T04:15:01.356Z,11.81
2022-09-20T04:17:48.022Z,11.82
2022-09-20T04:20:32.086Z,11.82
2022-09-20T04:23:14.747Z,11.83
2022-09-20T04:25:48.321Z,11.83
2022-09-20T04:28:32.660Z,11.86
2022-09-20T04:31:14.694Z,11.84
2022-09-20T04:33:50.277Z,11.85
2022-09-20T04:36:37.966Z,11.83
2022-09-20T04:39:18.499Z,11.81
2022-09-20T04:42:12.053Z,11.82
2022-09-20T04:45:12.656Z,11.81
2022-09-20T04:48:05.693Z,11.82
2022-09-20T04:51:14.788Z,11.84
2022-09-20T04:54:20.409Z,11.84
2022-09-20T04:57:23.726Z,11.84
2022-09-20T05:00:04.373Z,11.85
2022-09-20T05:03:08.025Z,11.84
2022-09-20T05:06:34.665Z,11.83
2022-09-20T05:09:42.250Z,11.83
2022-09-20T05:12:40.140Z,11.83
2022-09-20T05:15:43.392Z,11.82
2022-09-20T05:18:51.081Z,11.84
2022-09-20T05:21:43.757Z,11.85
2022-09-20T05:24:28.060Z,11.87
2022-09-20T05:27:24.346Z,11.90
2022-09-20T05:30:13.614Z,11.94
2022-09-20T05:32:55.664Z,11.97
2022-09-20T05:35:50.636Z,12.00
2022-09-20T05:38:40.990Z,12.02
2022-09-20T05:41:34.958Z,12.03
2022-09-20T05:44:31.068Z,12.05
2022-09-20T05:47:16.803Z,12.07
2022-09-20T05:50:04.511Z,12.08
2022-09-20T05:52:48.249Z,12.10
2022-09-20T05:55:23.162Z,12.12
2022-09-20T05:58:24.955Z,12.13
2022-09-20T06:01:01.839Z,12.14
2022-09-20T06:03:41.553Z,12.15
2022-09-20T06:06:28.062Z,12.17
2022-09-20T06:09:28.020Z,12.19
2022-09-20T06:12:31.550Z,12.21
2022-09-20T06:15:11.959Z,12.21
2022-09-20T06:18:08.426Z,12.22
2022-09-20T06:20:54.790Z,12.24
2022-09-20T06:23:26.885Z,12.26
2022-09-20T06:26:09.321Z,12.29
2022-09-20T06:28:45.609Z,12.32
2022-09-20T06:31:18.287Z,12.35
2022-09-20T06:34:02.194Z,12.39
2022-09-20T06:36:55.485Z,12.42
2022-09-20T06:39:56.863Z,12.46
2022-09-20T06:42:29.634Z,12.49
2022-09-20T06:45:01.693Z,12.51
2022-09-20T06:47:38.522Z,12.56
2022-09-20T06:50:16.372Z,12.61
2022-09-20T06:52:49.214Z,12.65
2022-09-20T06:55:27.215Z,12.69
2022-09-20T06:58:01.201Z,12.74
2022-09-20T07:00:33.260Z,12.78
2022-09-20T07:03:05.897Z,12.82
2022-09-20T07:05:38.359Z,12.89
2022-09-20T07:08:10.519Z,12.93
2022-09-20T07:10:43.950Z,12.99
2022-09-20T07:13:15.772Z,13.04
2022-09-20T07:15:47.590Z,13.07
2022-09-20T07:18:19.416Z,13.12
2022-09-20T07:20:51.249Z,13.17
2022-09-20T07:23:23.986Z,13.20
2022-09-20T07:25:58.305Z,13.26
2022-09-20T07:28:32.511Z,13.29
2022-09-20T07:31:04.351Z,13.35
2022-09-20T07:33:36.711Z,13.41
2022-09-20T07:36:09.970Z,13.48
2022-09-20T07:38:42.111Z,13.55
2022-09-20T07:41:14.122Z,13.65
2022-09-20T07:43:46.636Z,13.76
2022-09-20T07:46:20.669Z,13.85
2022-09-20T07:48:52.773Z,13.91
2022-09-20T07:51:24.798Z,13.96
2022-09-20T07:53:56.802Z,14.01
2022-09-20T07:56:28.748Z,14.01
2022-09-20T07:59:00.625Z,14.05
2022-09-20T08:01:32.455Z,14.11
2022-09-20T08:04:08.788Z,14.27
2022-09-20T08:06:45.078Z,14.40
2022-09-20T08:09:17.106Z,14.46
2022-09-20T08:11:49.483Z,14.52
2022-09-20T08:14:21.619Z,14.56
2022-09-20T08:16:54.775Z,14.59
2022-09-20T08:19:27.868Z,14.64
2022-09-20T08:21:59.880Z,14.71
2022-09-20T08:24:32.301Z,14.74
2022-09-20T08:27:04.677Z,14.80
2022-09-20T08:29:36.710Z,14.85
2022-09-20T08:32:08.674Z,14.91
2022-09-20T08:34:40.686Z,14.96
2022-09-20T08:37:12.787Z,15.04
2022-09-20T08:40:00.262Z,15.11
2022-09-20T08:42:39.096Z,15.17
2022-09-20T08:45:34.565Z,15.24
2022-09-20T08:48:10.281Z,15.30
2022-09-20T08:50:42.256Z,15.35
2022-09-20T08:53:14.938Z,15.40
2022-09-20T08:55:47.590Z,15.46
2022-09-20T08:58:19.590Z,15.53
2022-09-20T09:00:52.349Z,15.60
2022-09-20T09:03:25.146Z,15.69
2022-09-20T09:05:58.157Z,15.79
2022-09-20T09:08:37.541Z,15.91
2022-09-20T09:11:14.795Z,16.00
2022-09-20T09:14:01.330Z,16.08
2022-09-20T09:16:35.645Z,16.16
2022-09-20T09:19:36.568Z,16.24
2022-09-20T09:22:09.465Z,16.29
2022-09-20T09:24:41.334Z,16.38
2022-09-20T09:27:19.194Z,16.44
2022-09-20T09:29:55.638Z,16.46
2022-09-20T09:32:31.198Z,16.45
2022-09-20T09:35:35.806Z,16.45
2022-09-20T09:38:17.755Z,16.46
2022-09-20T09:41:00.731Z,16.47
2022-09-20T09:43:35.643Z,16.50
2022-09-20T09:46:37.925Z,16.55
2022-09-20T09:49:20.220Z,16.60
2022-09-20T09:52:18.156Z,16.63
2022-09-20T09:54:52.177Z,16.63
2022-09-20T09:57:52.024Z,16.63
2022-09-20T10:00:27.004Z,16.58
2022-09-20T10:03:36.570Z,16.65
2022-09-20T10:06:18.852Z,16.71
2022-09-20T10:08:57.028Z,16.79
2022-09-20T10:11:59.846Z,16.88
2022-09-20T10:14:56.481Z,16.92
2022-09-20T10:17:40.654Z,16.99
2022-09-20T10:20:31.240Z,17.04
2022-09-20T10:23:51.532Z,17.10
2022-09-20T10:26:40.488Z,17.11
2022-09-20T10:29:32.053Z,17.08
2022-09-20T10:32:27.098Z,16.98
2022-09-20T10:35:14.176Z,16.90
2022-09-20T10:38:07.363Z,16.83
2022-09-20T10:41:19.738Z,16.81
2022-09-20T10:44:06.145Z,16.87
2022-09-20T10:47:00.395Z,16.99
2022-09-20T10:50:00.967Z,17.09
2022-09-20T10:52:49.588Z,17.13
2022-09-20T10:55:31.432Z,17.12
2022-09-20T10:58:09.563Z,17.10
2022-09-20T11:01:05.652Z,17.09
2022-09-20T11:04:16.334Z,17.12
2022-09-20T11:06:51.389Z,17.17
2022-09-20T11:09:27.146Z,17.28
2022-09-20T11:12:23.621Z,17.50
2022-09-20T11:15:23.264Z,17.71
2022-09-20T11:18:07.924Z,17.88
2022-09-20T11:20:46.582Z,18.05
2022-09-20T11:23:21.728Z,18.35
2022-09-20T11:25:58.973Z,18.87
2022-09-20T11:28:36.864Z,19.54
2022-09-20T11:31:11.608Z,20.35
2022-09-20T11:33:49.263Z,21.39
2022-09-20T11:36:30.965Z,22.23
2022-09-20T11:39:07.321Z,22.27
2022-09-20T11:41:39.324Z,22.02
2022-09-20T11:44:15.534Z,21.62
2022-09-20T11:46:52.946Z,21.21
2022-09-20T11:49:45.653Z,20.78
2022-09-20T11:52:36.412Z,20.83
2022-09-20T11:55:28.166Z,21.79
2022-09-20T11:58:08.174Z,23.14
2022-09-20T12:00:41.641Z,24.48
2022-09-20T12:03:28.234Z,25.92
2022-09-20T12:06:06.505Z,26.27
2022-09-20T12:08:41.337Z,25.84
2022-09-20T12:11:14.719Z,25.21
2022-09-20T12:14:08.085Z,24.42
2022-09-20T12:16:42.845Z,24.03
2022-09-20T12:19:36.268Z,24.97
2022-09-20T12:22:08.449Z,26.17
2022-09-20T12:24:45.141Z,27.32
2022-09-20T12:27:20.024Z,28.46
2022-09-20T12:29:55.621Z,29.39
2022-09-20T12:32:39.643Z,30.22
2022-09-20T12:35:36.398Z,30.96
2022-09-20T12:38:20.798Z,31.64
2022-09-20T12:41:09.169Z,32.31
2022-09-20T12:44:02.489Z,32.90
2022-09-20T12:46:39.739Z,33.37
2022-09-20T12:49:46.924Z,33.82
2022-09-20T12:52:46.618Z,34.11
2022-09-20T12:55:27.760Z,34.50
2022-09-20T12:58:16.347Z,34.14
2022-09-20T13:00:59.808Z,32.85
2022-09-20T13:03:44.928Z,31.34
2022-09-20T13:06:19.633Z,30.02
2022-09-20T13:09:04.490Z,29.80
2022-09-20T13:11:45.665Z,30.27
2022-09-20T13:14:43.522Z,31.06
2022-09-20T13:17:27.206Z,31.51
2022-09-20T13:19:59.586Z,31.93
2022-09-20T13:22:43.518Z,32.40
2022-09-20T13:25:16.692Z,32.82
2022-09-20T13:28:10.616Z,33.34
2022-09-20T13:30:42.817Z,33.80
2022-09-20T13:33:23.723Z,34.19
2022-09-20T13:35:58.203Z,34.61
2022-09-20T13:38:31.842Z,34.43
2022-09-20T13:41:08.010Z,33.51
2022-09-20T13:43:41.733Z,32.24
2022-09-20T13:46:18.741Z,30.93
2022-09-20T13:48:59.689Z,29.63
2022-09-20T13:51:34.617Z,28.62
2022-09-20T13:54:24.355Z,27.63
2022-09-20T13:57:05.030Z,26.78
2022-09-20T13:59:45.138Z,26.00
2022-09-20T14:02:23.556Z,25.34
2022-09-20T14:04:57.718Z,24.78
2022-09-20T14:07:29.939Z,24.34
2022-09-20T14:10:02.049Z,23.98
2022-09-20T14:12:34.107Z,23.66
2022-09-20T14:15:08.663Z,23.38
2022-09-20T14:17:40.706Z,23.14
2022-09-20T14:20:15.439Z,22.90
2022-09-20T14:22:47.364Z,22.74
2022-09-20T14:25:23.007Z,22.59
2022-09-20T14:28:18.700Z,22.46
2022-09-20T14:30:50.699Z,22.33
2022-09-20T14:33:22.795Z,22.24
2022-09-20T14:35:54.586Z,22.17
2022-09-20T14:38:26.973Z,22.07
2022-09-20T14:40:58.912Z,21.97
2022-09-20T14:43:34.896Z,21.87
2022-09-20T14:46:16.273Z,21.78
2022-09-20T14:48:48.144Z,21.69
2022-09-20T14:51:22.664Z,21.57
2022-09-20T14:54:06.510Z,21.42
2022-09-20T14:56:40.685Z,21.28
2022-09-20T14:59:13.911Z,21.20
2022-09-20T15:01:56.225Z,21.11
2022-09-20T15:04:28.637Z,21.00
2022-09-20T15:07:03.140Z,20.90
2022-09-20T15:09:35.265Z,20.80
2022-09-20T15:12:15.996Z,20.69
2022-09-20T15:14:48.569Z,20.60
2022-09-20T15:17:21.457Z,20.49
2022-09-20T15:19:53.742Z,20.42
2022-09-20T15:22:26.738Z,20.34
2022-09-20T15:24:58.540Z,20.29
2022-09-20T15:27:30.514Z,20.24
2022-09-20T15:30:02.595Z,20.13
2022-09-20T15:32:34.621Z,20.09
2022-09-20T15:35:07.431Z,20.03
2022-09-20T15:37:39.861Z,19.97
2022-09-20T15:40:11.905Z,19.91
2022-09-20T15:42:45.902Z,19.86
2022-09-20T15:45:18.267Z,19.78
2022-09-20T15:47:50.227Z,19.72
2022-09-20T15:50:23.382Z,19.67
2022-09-20T15:52:59.764Z,19.63
2022-09-20T15:55:32.199Z,19.63
2022-09-20T15:58:04.177Z,19.61
2022-09-20T16:00:36.459Z,19.60
2022-09-20T16:03:08.474Z,19.58
2022-09-20T16:05:40.388Z,19.58
2022-09-20T16:08:12.321Z,19.56
2022-09-20T16:10:44.713Z,19.57
2022-09-20T16:13:16.582Z,19.58
2022-09-20T16:16:02.377Z,19.57
2022-09-20T16:18:54.498Z,19.53
2022-09-20T16:21:26.395Z,19.48
2022-09-20T16:23:58.612Z,19.43
2022-09-20T16:26:31.303Z,19.34
2022-09-20T16:29:04.962Z,19.29
2022-09-20T16:31:47.296Z,19.22
2022-09-20T16:34:33.484Z,19.16
2022-09-20T16:37:10.050Z,19.09
2022-09-20T16:39:42.151Z,19.05
2022-09-20T16:42:14.896Z,18.98
2022-09-20T16:44:47.372Z,18.92
2022-09-20T16:47:25.170Z,18.87
2022-09-20T16:49:57.508Z,18.81
2022-09-20T16:52:29.439Z,18.76
2022-09-20T16:55:03.333Z,18.70
2022-09-20T16:57:36.790Z,18.67
2022-09-20T17:00:10.395Z,18.62
2022-09-20T17:02:47.637Z,18.58
2022-09-20T17:05:19.790Z,18.52
2022-09-20T17:07:51.604Z,18.46
2022-09-20T17:10:24.366Z,18.41
2022-09-20T17:12:59.497Z,18.38
2022-09-20T17:15:31.410Z,18.33
2022-09-20T17:18:05.473Z,18.28
2022-09-20T17:20:39.559Z,18.23
2022-09-20T17:23:12.138Z,18.18
2022-09-20T17:25:45.221Z,18.15
2022-09-20T17:28:17.908Z,18.10
2022-09-20T17:30:49.737Z,18.08
2022-09-20T17:33:21.489Z,18.04
2022-09-20T17:35:53.361Z,17.99
2022-09-20T17:38:25.832Z,17.94
2022-09-20T17:41:08.451Z,17.89
2022-09-20T17:43:42.226Z,17.85
2022-09-20T17:46:17.742Z,17.80
2022-09-20T17:48:52.297Z,17.74
2022-09-20T17:51:26.169Z,17.69
2022-09-20T17:53:58.681Z,17.63
2022-09-20T17:56:31.288Z,17.58
2022-09-20T17:59:05.041Z,17.54
2022-09-20T18:01:37.768Z,17.49
2022-09-20T18:04:10.114Z,17.45
2022-09-20T18:06:46.096Z,17.41
2022-09-20T18:09:20.655Z,17.38
2022-09-20T18:11:54.521Z,17.34
2022-09-20T18:14:28.063Z,17.30
2022-09-20T18:17:01.553Z,17.26
2022-09-20T18:19:34.189Z,17.22
2022-09-20T18:22:06.042Z,17.18
2022-09-20T18:24:37.833Z,17.13
2022-09-20T18:27:09.625Z,17.08
2022-09-20T18:29:41.482Z,17.03
2022-09-20T18:32:13.603Z,16.99
2022-09-20T18:34:47.804Z,16.97
2022-09-20T18:37:19.638Z,16.93
2022-09-20T18:39:51.650Z,16.89
2022-09-20T18:42:23.730Z,16.85
2022-09-20T18:44:55.983Z,16.82
2022-09-20T18:47:31.128Z,16.78
2022-09-20T18:50:03.082Z,16.74
2022-09-20T18:52:35.744Z,16.70
2022-09-20T18:55:08.212Z,16.65
2022-09-20T18:57:40.246Z,16.58
2022-09-20T19:00:12.712Z,16.53
2022-09-20T19:02:44.715Z,16.51
2022-09-20T19:05:23.593Z,16.48
2022-09-20T19:08:11.310Z,16.46
2022-09-20T19:10:54.476Z,16.43
2022-09-20T19:13:44.974Z,16.41
2022-09-20T19:16:34.667Z,16.38
2022-09-20T19:19:24.216Z,16.34
2022-09-20T19:22:14.562Z,16.30
2022-09-20T19:25:06.665Z,16.28
2022-09-20T19:27:39.050Z,16.25
2022-09-20T19:30:14.910Z,16.22
2022-09-20T19:32:48.044Z,16.20
2022-09-20T19:35:23.918Z,16.17
2022-09-20T19:38:11.673Z,16.16
2022-09-20T19:40:53.291Z,16.14
2022-09-20T19:44:08.166Z,16.13
2022-09-20T19:47:01.968Z,16.11
2022-09-20T19:49:48.209Z,16.10
2022-09-20T19:52:20.157Z,16.08
2022-09-20T19:54:52.295Z,16.07
2022-09-20T19:57:34.284Z,16.05
2022-09-20T20:00:09.466Z,16.02
2022-09-20T20:02:43.562Z,15.99
2022-09-20T20:05:18.754Z,15.97
2022-09-20T20:07:56.702Z,15.95
2022-09-20T20:10:35.220Z,15.93
2022-09-20T20:13:30.080Z,15.90
2022-09-20T20:16:08.037Z,15.88
2022-09-20T20:18:56.851Z,15.86
2022-09-20T20:21:37.309Z,15.84
2022-09-20T20:24:44.461Z,15.83
2022-09-20T20:27:16.275Z,15.80
2022-09-20T20:29:48.724Z,15.77
2022-09-20T20:32:20.593Z,15.76
2022-09-20T20:34:52.335Z,15.73
2022-09-20T20:37:26.243Z,15.71
2022-09-20T20:39:58.113Z,15.67
2022-09-20T20:42:29.949Z,15.65
2022-09-20T20:45:01.885Z,15.62
2022-09-20T20:47:34.392Z,15.57
2022-09-20T20:50:06.584Z,15.55
2022-09-20T20:52:38.805Z,15.50
2022-09-20T20:55:10.737Z,15.48
2022-09-20T20:57:42.797Z,15.43
2022-09-20T21:00:15.311Z,15.41
2022-09-20T21:02:47.190Z,15.39
2022-09-20T21:05:19.135Z,15.36
2022-09-20T21:07:52.685Z,15.33
2022-09-20T21:10:24.594Z,15.30
2022-09-20T21:12:56.567Z,15.29
2022-09-20T21:15:28.677Z,15.27
2022-09-20T21:18:01.279Z,15.25
2022-09-20T21:20:33.162Z,15.23
2022-09-20T21:23:04.995Z,15.20
2022-09-20T21:25:36.877Z,15.19
2022-09-20T21:28:09.362Z,15.15
2022-09-20T21:30:41.270Z,15.13
2022-09-20T21:33:13.259Z,15.09
2022-09-20T21:35:45.260Z,15.07
2022-09-20T21:38:17.964Z,15.04
2022-09-20T21:40:49.771Z,15.02
2022-09-20T21:43:22.037Z,15.01
2022-09-20T21:45:54.431Z,14.99
2022-09-20T21:48:26.769Z,14.99
2022-09-20T21:51:03.674Z,14.96
2022-09-20T21:53:37.481Z,14.96
2022-09-20T21:56:11.648Z,14.95
2022-09-20T21:58:45.137Z,14.95
2022-09-20T22:01:21.278Z,14.94
2022-09-20T22:03:59.110Z,14.95
2022-09-20T22:06:36.420Z,14.96
2022-09-20T22:09:13.454Z,14.93
2022-09-20T22:11:47.271Z,14.92
2022-09-20T22:14:19.856Z,14.89
2022-09-20T22:16:52.815Z,14.83
2022-09-20T22:19:25.213Z,14.79
2022-09-20T22:21:57.115Z,14.75
2022-09-20T22:24:34.816Z,14.73
2022-09-20T22:27:06.931Z,14.71
2022-09-20T22:29:38.726Z,14.69
2022-09-20T22:32:10.688Z,14.67
2022-09-20T22:34:44.528Z,14.65
2022-09-20T22:37:17.455Z,14.64
2022-09-20T22:39:49.193Z,14.62
2022-09-20T22:42:21.016Z,14.58
2022-09-20T22:44:52.885Z,14.53
2022-09-20T22:47:24.728Z,14.47
2022-09-20T22:49:56.529Z,14.44
2022-09-20T22:52:28.338Z,14.42
2022-09-20T22:55:00.169Z,14.40
2022-09-20T22:57:31.975Z,14.37
2022-09-20T23:00:04.617Z,14.35
2022-09-20T23:02:36.405Z,14.35
2022-09-20T23:05:08.403Z,14.35
2022-09-20T23:07:40.388Z,14.34
2022-09-20T23:10:12.161Z,14.34
2022-09-20T23:12:44.171Z,14.32
2022-09-20T23:15:16.006Z,14.32
2022-09-20T23:17:48.036Z,14.31
2022-09-20T23:20:19.797Z,14.31
2022-09-20T23:22:51.764Z,14.30
2022-09-20T23:25:23.688Z,14.30
2022-09-20T23:27:55.512Z,14.31
2022-09-20T23:30:27.932Z,14.31
2022-09-20T23:33:00.068Z,14.29
2022-09-20T23:35:32.008Z,14.29
2022-09-20T23:38:03.987Z,14.26
2022-09-20T23:40:35.931Z,14.22
2022-09-20T23:43:08.054Z,14.20
2022-09-20T23:45:42.785Z,14.16
2022-09-20T23:48:14.720Z,14.14
2022-09-20T23:50:46.605Z,14.11
2022-09-20T23:53:18.628Z,14.09
2022-09-20T23:55:50.530Z,14.07
2022-09-20T23:58:22.637Z,14.06
